Wetterdaten: Woche 24.08.15 - 30.08.15 (KW35)
Datum Zeit Temp. A. Feuchte A. Luftdruck Regen Wind Richtung Sonnenschein ET UV Solar Taupunkt Windchill Windben Empfang
24.08.2015 00:00 15,3 C 75 % 1008,9 hPa 0,0 l/m 0,1 km/h (0 Bft) N 0,00 h 0,000 mm 0,0 UV-I 0 W/m 10,9 C 15,3 C 1,0 km/h (0 Bft) 0,00 %
24.08.2015 01:00 14,0 C 82 % 1009,0 hPa 0,0 l/m 0,0 km/h (0 Bft) N 0,00 h 0,000 mm 0,0 UV-I 0 W/m 10,9 C 14,0 C 0,0 km/h (0 Bft) 0,00 %
24.08.2015 02:00 12,6 C 87 % 1008,9 hPa 0,0 l/m 0,0 km/h (0 Bft) N 0,00 h 0,000 mm 0,0 UV-I 0 W/m 10,5 C 12,6 C 0,0 km/h (0 Bft) 0,00 %
24.08.2015 03:00 11,7 C 91 % 1008,8 hPa 0,0 l/m 0,0 km/h (0 Bft) N 0,00 h 0,000 mm 0,0 UV-I 0 W/m 10,3 C 11,7 C 0,0 km/h (0 Bft) 0,00 %
24.08.2015 04:00 11,4 C 93 % 1008,9 hPa 0,0 l/m 0,0 km/h (0 Bft) N 0,00 h 0,000 mm 0,0 UV-I 0 W/m 10,3 C 11,4 C 0,0 km/h (0 Bft) 0,00 %
24.08.2015 05:00 10,8 C 95 % 1008,9 hPa 0,0 l/m 0,0 km/h (0 Bft) N 0,00 h 0,000 mm 0,0 UV-I 0 W/m 10,0 C 10,8 C 0,0 km/h (0 Bft) 0,00 %
24.08.2015 06:00 11,8 C 93 % 1009,1 hPa 0,0 l/m 0,4 km/h (0 Bft) O 0,58 h 0,000 mm 0,0 UV-I 46 W/m 10,7 C 11,8 C 1,0 km/h (0 Bft) 0,00 %
24.08.2015 07:00 14,5 C 82 % 1009,3 hPa 0,0 l/m 0,0 km/h (0 Bft) N 0,00 h 0,000 mm 1,0 UV-I 76 W/m 11,5 C 14,5 C 0,0 km/h (0 Bft) 0,00 %
24.08.2015 08:00 15,6 C 79 % 1009,0 hPa 0,0 l/m 1,1 km/h (0 Bft) O 0,00 h 0,000 mm 1,0 UV-I 138 W/m 11,9 C 15,5 C 2,3 km/h (1 Bft) 0,00 %
24.08.2015 09:00 19,4 C 63 % 1008,9 hPa 0,0 l/m 4,1 km/h (1 Bft) O 0,42 h 0,000 mm 1,5 UV-I 261 W/m 12,1 C 19,3 C 6,9 km/h (2 Bft) 0,00 %
24.08.2015 10:00 22,0 C 54 % 1008,8 hPa 0,0 l/m 4,1 km/h (1 Bft) O-SO 1,00 h 0,000 mm 2,1 UV-I 460 W/m 12,2 C 21,8 C 5,9 km/h (2 Bft) 0,00 %
24.08.2015 11:00 23,9 C 48 % 1008,6 hPa 0,0 l/m 3,9 km/h (1 Bft) O-NO 0,58 h 0,000 mm 2,6 UV-I 548 W/m 12,3 C 23,8 C 7,3 km/h (2 Bft) 0,00 %
24.08.2015 12:00 25,3 C 43 % 1008,3 hPa 0,0 l/m 5,0 km/h (1 Bft) O-SO 0,92 h 0,000 mm 3,5 UV-I 743 W/m 12,0 C 25,2 C 8,6 km/h (2 Bft) 0,00 %
24.08.2015 13:00 26,6 C 41 % 1007,8 hPa 0,0 l/m 5,8 km/h (2 Bft) O-NO 1,00 h 0,000 mm 3,5 UV-I 759 W/m 12,4 C 26,5 C 9,6 km/h (2 Bft) 0,00 %
24.08.2015 14:00 26,9 C 43 % 1007,4 hPa 0,0 l/m 6,1 km/h (2 Bft) O 0,83 h 0,000 mm 2,7 UV-I 692 W/m 13,3 C 26,8 C 8,9 km/h (2 Bft) 0,00 %
24.08.2015 15:00 28,1 C 42 % 1006,9 hPa 0,0 l/m 5,0 km/h (1 Bft) O-SO 1,00 h 0,000 mm 1,6 UV-I 842 W/m 14,0 C 28,0 C 8,3 km/h (2 Bft) 0,00 %
24.08.2015 16:00 28,5 C 41 % 1006,6 hPa 0,0 l/m 4,6 km/h (1 Bft) O-SO 0,92 h 0,000 mm 1,0 UV-I 703 W/m 13,7 C 28,4 C 7,3 km/h (2 Bft) 0,00 %
24.08.2015 17:00 28,4 C 41 % 1006,3 hPa 0,0 l/m 3,5 km/h (1 Bft) SO 0,75 h 0,000 mm 1,0 UV-I 521 W/m 13,7 C 28,4 C 6,0 km/h (2 Bft) 0,00 %
24.08.2015 18:00 28,8 C 37 % 1006,0 hPa 0,0 l/m 2,4 km/h (1 Bft) O-NO 1,00 h 0,000 mm 1,0 UV-I 559 W/m 12,5 C 28,8 C 5,3 km/h (1 Bft) 0,00 %
24.08.2015 19:00 26,5 C 42 % 1005,9 hPa 0,0 l/m 0,0 km/h (0 Bft) O-SO 0,33 h 0,000 mm 0,0 UV-I 66 W/m 12,3 C 26,5 C 0,3 km/h (0 Bft) 0,00 %
24.08.2015 20:00 23,2 C 51 % 1006,3 hPa 0,0 l/m 0,3 km/h (0 Bft) O-SO 0,00 h 0,000 mm 0,0 UV-I 0 W/m 12,4 C 23,2 C 1,0 km/h (0 Bft) 0,00 %
24.08.2015 21:00 21,0 C 58 % 1006,9 hPa 0,0 l/m 0,0 km/h (0 Bft) N 0,00 h 0,000 mm 0,0 UV-I 0 W/m 12,5 C 21,0 C 0,0 km/h (0 Bft) 0,00 %
24.08.2015 22:00 18,8 C 67 % 1007,6 hPa 0,0 l/m 0,0 km/h (0 Bft) N 0,00 h 0,000 mm 0,0 UV-I 0 W/m 12,6 C 18,8 C 0,0 km/h (0 Bft) 0,00 %
24.08.2015 23:00 19,2 C 68 % 1009,8 hPa 0,0 l/m 5,7 km/h (1 Bft) S 0,00 h 0,000 mm 0,0 UV-I 0 W/m 13,3 C 18,6 C 8,9 km/h (2 Bft) 0,00 %
25.08.2015 00:00 19,4 C 69 % 1012,2 hPa 0,0 l/m 5,2 km/h (1 Bft) NO 0,00 h 0,000 mm 0,0 UV-I 0 W/m 13,7 C 19,1 C 7,9 km/h (2 Bft) 0,00 %
25.08.2015 01:00 17,8 C 72 % 1013,7 hPa 0,0 l/m 2,9 km/h (1 Bft) W-SW 0,00 h 0,000 mm 0,0 UV-I 0 W/m 12,7 C 17,5 C 5,6 km/h (1 Bft) 0,00 %
25.08.2015 02:00 17,6 C 71 % 1014,5 hPa 0,0 l/m 5,4 km/h (1 Bft) W-NW 0,00 h 0,000 mm 0,0 UV-I 0 W/m 12,2 C 16,8 C 8,0 km/h (2 Bft) 0,00 %
25.08.2015 03:00 17,3 C 66 % 1015,4 hPa 0,0 l/m 4,6 km/h (1 Bft) W 0,00 h 0,000 mm 0,0 UV-I 0 W/m 10,9 C 16,8 C 7,6 km/h (2 Bft) 0,00 %
25.08.2015 04:00 16,8 C 63 % 1016,2 hPa 0,0 l/m 5,4 km/h (1 Bft) W-SW 0,00 h 0,000 mm 0,0 UV-I 0 W/m 9,8 C 16,2 C 8,3 km/h (2 Bft) 0,00 %
25.08.2015 05:00 16,1 C 65 % 1016,9 hPa 0,0 l/m 3,5 km/h (1 Bft) W-SW 0,00 h 0,000 mm 0,0 UV-I 0 W/m 9,6 C 16,0 C 7,3 km/h (2 Bft) 0,00 %
25.08.2015 06:00 14,1 C 82 % 1017,9 hPa 0,0 l/m 0,5 km/h (0 Bft) W-NW 0,00 h 0,000 mm 0,0 UV-I 10 W/m 11,2 C 14,1 C 1,3 km/h (1 Bft) 0,00 %
25.08.2015 07:00 13,9 C 86 % 1018,7 hPa 0,3 l/m 0,0 km/h (0 Bft) N 0,00 h 0,000 mm 0,0 UV-I 35 W/m 11,6 C 13,9 C 0,0 km/h (0 Bft) 0,00 %
25.08.2015 08:00 14,4 C 86 % 1019,3 hPa 0,0 l/m 0,0 km/h (0 Bft) N 0,00 h 0,000 mm 1,0 UV-I 110 W/m 12,0 C 14,4 C 0,0 km/h (0 Bft) 0,00 %
25.08.2015 09:00 16,3 C 75 % 1019,7 hPa 0,0 l/m 0,3 km/h (0 Bft) W-SW 0,00 h 0,000 mm 1,0 UV-I 198 W/m 11,8 C 16,3 C 1,3 km/h (1 Bft) 0,00 %
25.08.2015 10:00 18,3 C 58 % 1019,9 hPa 0,0 l/m 3,0 km/h (1 Bft) W-SW 0,08 h 0,000 mm 1,2 UV-I 303 W/m 9,9 C 18,2 C 5,9 km/h (2 Bft) 0,00 %
25.08.2015 11:00 19,5 C 48 % 1019,9 hPa 0,0 l/m 3,0 km/h (1 Bft) N-NW 0,42 h 0,000 mm 2,0 UV-I 439 W/m 8,0 C 19,4 C 5,6 km/h (1 Bft) 0,00 %
25.08.2015 12:00 20,5 C 34 % 1020,1 hPa 0,0 l/m 1,4 km/h (1 Bft) S-SW 0,08 h 0,000 mm 1,2 UV-I 304 W/m 4,2 C 20,5 C 3,6 km/h (1 Bft) 0,00 %
25.08.2015 13:00 20,3 C 33 % 1020,2 hPa 0,0 l/m 3,3 km/h (1 Bft) W-SW 0,33 h 0,000 mm 2,1 UV-I 457 W/m 3,4 C 20,3 C 6,3 km/h (2 Bft) 0,00 %
25.08.2015 14:00 21,5 C 31 % 1020,1 hPa 0,0 l/m 1,0 km/h (0 Bft) SW 0,25 h 0,000 mm 1,8 UV-I 376 W/m 3,5 C 21,5 C 2,0 km/h (1 Bft) 0,00 %
25.08.2015 15:00 20,0 C 40 % 1020,0 hPa 0,0 l/m 0,3 km/h (0 Bft) W-NW 0,00 h 0,000 mm 1,0 UV-I 219 W/m 5,9 C 20,0 C 0,7 km/h (0 Bft) 0,00 %
25.08.2015 16:00 19,7 C 40 % 1020,0 hPa 0,0 l/m 0,5 km/h (0 Bft) W-NW 0,00 h 0,000 mm 1,0 UV-I 189 W/m 5,7 C 19,7 C 2,3 km/h (1 Bft) 0,00 %
25.08.2015 17:00 18,9 C 44 % 1019,9 hPa 0,0 l/m 0,9 km/h (0 Bft) W-NW 0,08 h 0,000 mm 1,0 UV-I 151 W/m 6,3 C 18,9 C 1,7 km/h (1 Bft) 0,00 %
25.08.2015 18:00 18,4 C 47 % 1020,1 hPa 0,0 l/m 0,0 km/h (0 Bft) N 0,00 h 0,000 mm 1,0 UV-I 103 W/m 6,9 C 18,4 C 0,0 km/h (0 Bft) 0,00 %
25.08.2015 19:00 16,9 C 53 % 1019,8 hPa 0,0 l/m 0,0 km/h (0 Bft) N 0,83 h 0,000 mm 0,0 UV-I 53 W/m 7,1 C 16,9 C 0,0 km/h (0 Bft) 0,00 %
25.08.2015 20:00 13,8 C 70 % 1020,3 hPa 0,0 l/m 0,0 km/h (0 Bft) N 0,00 h 0,000 mm 0,0 UV-I 0 W/m 8,5 C 13,8 C 0,0 km/h (0 Bft) 0,00 %
25.08.2015 21:00 11,6 C 81 % 1020,8 hPa 0,0 l/m 0,0 km/h (0 Bft) N 0,00 h 0,000 mm 0,0 UV-I 0 W/m 8,3 C 11,6 C 0,0 km/h (0 Bft) 0,00 %
25.08.2015 22:00 10,4 C 85 % 1021,1 hPa 0,0 l/m 0,0 km/h (0 Bft) N 0,00 h 0,000 mm 0,0 UV-I 0 W/m 7,9 C 10,4 C 0,0 km/h (0 Bft) 0,00 %
25.08.2015 23:00 9,6 C 90 % 1021,4 hPa 0,0 l/m 0,0 km/h (0 Bft) N 0,00 h 0,000 mm 0,0 UV-I 0 W/m 8,0 C 9,6 C 0,0 km/h (0 Bft) 0,00 %
26.08.2015 00:00 9,3 C 91 % 1021,4 hPa 0,0 l/m 0,0 km/h (0 Bft) N 0,00 h 0,000 mm 0,0 UV-I 0 W/m 7,9 C 9,3 C 0,0 km/h (0 Bft) 0,00 %
26.08.2015 01:00 8,4 C 93 % 1021,4 hPa 0,0 l/m 0,0 km/h (0 Bft) N 0,00 h 0,000 mm 0,0 UV-I 0 W/m 7,3 C 8,4 C 0,0 km/h (0 Bft) 0,00 %
26.08.2015 02:00 7,4 C 96 % 1021,4 hPa 0,0 l/m 0,0 km/h (0 Bft) N 0,00 h 0,000 mm 0,0 UV-I 0 W/m 6,7 C 7,4 C 0,0 km/h (0 Bft) 0,00 %
26.08.2015 03:00 6,8 C 97 % 1021,5 hPa 0,0 l/m 0,0 km/h (0 Bft) N 0,00 h 0,000 mm 0,0 UV-I 0 W/m 6,3 C 6,8 C 0,0 km/h (0 Bft) 0,00 %
26.08.2015 04:00 6,3 C 97 % 1021,6 hPa 0,0 l/m 0,0 km/h (0 Bft) N 0,00 h 0,000 mm 0,0 UV-I 0 W/m 5,9 C 6,3 C 0,0 km/h (0 Bft) 0,00 %
26.08.2015 05:00 6,0 C 98 % 1021,9 hPa 0,0 l/m 0,0 km/h (0 Bft) N 0,00 h 0,000 mm 0,0 UV-I 0 W/m 5,7 C 6,0 C 0,0 km/h (0 Bft) 0,00 %
26.08.2015 06:00 5,9 C 98 % 1022,1 hPa 0,0 l/m 0,0 km/h (0 Bft) N 0,58 h 0,000 mm 0,0 UV-I 46 W/m 5,6 C 5,9 C 0,0 km/h (0 Bft) 0,00 %
26.08.2015 07:00 10,8 C 84 % 1022,1 hPa 0,0 l/m 0,0 km/h (0 Bft) N 0,67 h 0,000 mm 1,0 UV-I 124 W/m 8,0 C 10,8 C 0,0 km/h (0 Bft) 0,00 %
26.08.2015 08:00 14,7 C 64 % 1022,1 hPa 0,0 l/m 0,0 km/h (0 Bft) N 0,00 h 0,000 mm 1,0 UV-I 174 W/m 7,8 C 14,7 C 0,3 km/h (0 Bft) 0,00 %
26.08.2015 09:00 17,8 C 54 % 1022,1 hPa 0,0 l/m 0,5 km/h (0 Bft) O-SO 0,17 h 0,000 mm 1,2 UV-I 245 W/m 8,3 C 17,8 C 1,0 km/h (0 Bft) 0,00 %
26.08.2015 10:00 19,6 C 49 % 1021,9 hPa 0,0 l/m 1,8 km/h (1 Bft) O 1,00 h 0,000 mm 2,0 UV-I 436 W/m 8,6 C 19,6 C 4,0 km/h (1 Bft) 0,00 %
26.08.2015 11:00 22,0 C 42 % 1021,5 hPa 0,0 l/m 3,9 km/h (1 Bft) O-SO 1,00 h 0,000 mm 3,0 UV-I 610 W/m 8,4 C 21,7 C 6,3 km/h (2 Bft) 0,00 %
26.08.2015 12:00 23,3 C 34 % 1020,6 hPa 0,0 l/m 4,3 km/h (1 Bft) O-NO 1,00 h 0,000 mm 3,5 UV-I 731 W/m 6,6 C 23,3 C 6,9 km/h (2 Bft) 0,00 %
26.08.2015 13:00 24,3 C 28 % 1019,6 hPa 0,0 l/m 3,4 km/h (1 Bft) O-SO 1,00 h 0,000 mm 3,8 UV-I 796 W/m 4,7 C 24,2 C 6,6 km/h (2 Bft) 0,00 %
26.08.2015 14:00 25,5 C 21 % 1018,6 hPa 0,0 l/m 3,8 km/h (1 Bft) O-NO 1,00 h 0,000 mm 3,0 UV-I 838 W/m 1,5 C 25,4 C 6,6 km/h (2 Bft) 0,00 %
26.08.2015 15:00 26,0 C 19 % 1018,1 hPa 0,0 l/m 4,0 km/h (1 Bft) O-SO 1,00 h 0,000 mm 1,5 UV-I 828 W/m 0,4 C 25,9 C 7,3 km/h (2 Bft) 0,00 %
26.08.2015 16:00 25,8 C 20 % 1017,5 hPa 0,0 l/m 4,7 km/h (1 Bft) O-SO 0,67 h 0,000 mm 1,0 UV-I 542 W/m 0,8 C 25,6 C 7,3 km/h (2 Bft) 0,00 %
26.08.2015 17:00 25,9 C 22 % 1016,9 hPa 0,0 l/m 3,6 km/h (1 Bft) O-NO 0,83 h 0,000 mm 1,0 UV-I 589 W/m 2,3 C 25,8 C 6,6 km/h (2 Bft) 0,00 %
26.08.2015 18:00 25,3 C 27 % 1016,5 hPa 0,0 l/m 4,0 km/h (1 Bft) O 1,02 h 0,000 mm 1,0 UV-I 416 W/m 4,6 C 25,1 C 6,9 km/h (2 Bft) 0,00 %
26.08.2015 19:00 23,0 C 39 % 1016,0 hPa 0,0 l/m 3,0 km/h (1 Bft) O-SO 0,83 h 0,000 mm 0,0 UV-I 92 W/m 8,0 C 22,9 C 5,3 km/h (1 Bft) 0,00 %
26.08.2015 20:00 20,9 C 46 % 1016,0 hPa 0,0 l/m 1,8 km/h (1 Bft) O-NO 0,00 h 0,000 mm 0,0 UV-I 0 W/m 8,9 C 20,9 C 4,7 km/h (1 Bft) 0,00 %
26.08.2015 21:00 19,7 C 51 % 1016,1 hPa 0,0 l/m 2,8 km/h (1 Bft) O-SO 0,00 h 0,000 mm 0,0 UV-I 0 W/m 9,2 C 19,7 C 5,3 km/h (1 Bft) 0,00 %
26.08.2015 22:00 18,8 C 53 % 1016,3 hPa 0,0 l/m 3,1 km/h (1 Bft) O 0,00 h 0,000 mm 0,0 UV-I 0 W/m 9,1 C 18,7 C 6,0 km/h (2 Bft) 0,00 %
26.08.2015 23:00 17,5 C 58 % 1016,2 hPa 0,0 l/m 0,5 km/h (0 Bft) NO 0,00 h 0,000 mm 0,0 UV-I 0 W/m 9,2 C 17,5 C 1,3 km/h (1 Bft) 0,00 %
27.08.2015 00:00 15,4 C 67 % 1016,1 hPa 0,0 l/m 0,0 km/h (0 Bft) N 0,00 h 0,000 mm 0,0 UV-I 0 W/m 9,2 C 15,4 C 0,0 km/h (0 Bft) 0,00 %
27.08.2015 01:00 13,3 C 75 % 1016,1 hPa 0,0 l/m 0,0 km/h (0 Bft) N 0,00 h 0,000 mm 0,0 UV-I 0 W/m 9,0 C 13,3 C 0,0 km/h (0 Bft) 0,00 %
27.08.2015 02:00 12,0 C 81 % 1016,0 hPa 0,0 l/m 0,0 km/h (0 Bft) N 0,00 h 0,000 mm 0,0 UV-I 0 W/m 8,8 C 12,0 C 0,0 km/h (0 Bft) 0,00 %
27.08.2015 03:00 10,7 C 86 % 1016,0 hPa 0,0 l/m 0,0 km/h (0 Bft) N 0,00 h 0,000 mm 0,0 UV-I 0 W/m 8,5 C 10,7 C 0,0 km/h (0 Bft) 0,00 %
27.08.2015 04:00 10,2 C 92 % 1016,0 hPa 0,0 l/m 0,0 km/h (0 Bft) N 0,00 h 0,000 mm 0,0 UV-I 0 W/m 9,0 C 10,2 C 0,0 km/h (0 Bft) 0,00 %
27.08.2015 05:00 9,9 C 94 % 1016,1 hPa 0,0 l/m 0,0 km/h (0 Bft) N 0,00 h 0,000 mm 0,0 UV-I 0 W/m 8,9 C 9,9 C 0,0 km/h (0 Bft) 0,00 %
27.08.2015 06:00 10,3 C 96 % 1016,4 hPa 0,0 l/m 0,0 km/h (0 Bft) N 0,58 h 0,000 mm 0,0 UV-I 54 W/m 9,6 C 10,3 C 0,0 km/h (0 Bft) 0,00 %
27.08.2015 07:00 15,3 C 72 % 1016,9 hPa 0,0 l/m 0,0 km/h (0 Bft) N 0,67 h 0,000 mm 1,0 UV-I 131 W/m 10,1 C 15,3 C 0,0 km/h (0 Bft) 0,00 %
27.08.2015 08:00 19,8 C 55 % 1017,1 hPa 0,0 l/m 0,0 km/h (0 Bft) N 0,00 h 0,000 mm 1,0 UV-I 172 W/m 10,3 C 19,8 C 0,0 km/h (0 Bft) 0,00 %
27.08.2015 09:00 22,6 C 47 % 1017,3 hPa 0,0 l/m 0,1 km/h (0 Bft) O-NO 0,50 h 0,000 mm 1,3 UV-I 269 W/m 10,7 C 22,6 C 0,3 km/h (0 Bft) 0,00 %
27.08.2015 10:00 24,2 C 43 % 1017,5 hPa 0,0 l/m 0,1 km/h (0 Bft) NO 0,58 h 0,000 mm 1,9 UV-I 395 W/m 10,8 C 24,2 C 0,3 km/h (0 Bft) 0,00 %
27.08.2015 11:00 27,0 C 38 % 1017,1 hPa 0,0 l/m 0,5 km/h (0 Bft) O 1,02 h 0,000 mm 3,0 UV-I 648 W/m 11,6 C 27,0 C 1,7 km/h (1 Bft) 0,00 %
27.08.2015 12:00 28,1 C 36 % 1016,2 hPa 0,0 l/m 0,7 km/h (0 Bft) SO 1,00 h 0,000 mm 3,7 UV-I 811 W/m 11,3 C 28,0 C 1,0 km/h (0 Bft) 0,00 %
27.08.2015 13:00 28,9 C 31 % 1015,0 hPa 0,0 l/m 2,6 km/h (1 Bft) O-SO 1,00 h 0,000 mm 3,5 UV-I 797 W/m 10,2 C 28,8 C 5,6 km/h (1 Bft) 0,00 %
27.08.2015 14:00 29,4 C 29 % 1014,2 hPa 0,0 l/m 3,3 km/h (1 Bft) O 0,92 h 0,000 mm 2,9 UV-I 811 W/m 9,5 C 29,4 C 6,9 km/h (2 Bft) 0,00 %
27.08.2015 15:00 30,5 C 25 % 1013,5 hPa 0,0 l/m 3,8 km/h (1 Bft) N-NO 1,00 h 0,000 mm 1,3 UV-I 879 W/m 8,4 C 30,4 C 6,3 km/h (2 Bft) 0,00 %
27.08.2015 16:00 30,1 C 29 % 1013,1 hPa 0,0 l/m 3,6 km/h (1 Bft) NO 0,58 h 0,000 mm 1,0 UV-I 485 W/m 10,0 C 30,1 C 5,6 km/h (1 Bft) 0,00 %
27.08.2015 17:00 30,2 C 29 % 1012,9 hPa 0,0 l/m 4,2 km/h (1 Bft) O-SO 0,83 h 0,000 mm 1,0 UV-I 614 W/m 10,1 C 30,1 C 7,3 km/h (2 Bft) 0,00 %
27.08.2015 18:00 29,1 C 31 % 1012,8 hPa 0,0 l/m 3,9 km/h (1 Bft) NO 1,00 h 0,000 mm 1,0 UV-I 367 W/m 10,3 C 29,0 C 7,6 km/h (2 Bft) 0,00 %
27.08.2015 19:00 27,0 C 39 % 1012,7 hPa 0,0 l/m 1,5 km/h (1 Bft) O 0,75 h 0,000 mm 0,0 UV-I 85 W/m 11,9 C 27,0 C 2,6 km/h (1 Bft) 0,00 %
27.08.2015 20:00 23,8 C 49 % 1013,0 hPa 0,0 l/m 0,0 km/h (0 Bft) N 0,00 h 0,000 mm 0,0 UV-I 0 W/m 12,2 C 23,8 C 0,0 km/h (0 Bft) 0,00 %
27.08.2015 21:00 22,0 C 57 % 1013,1 hPa 0,0 l/m 2,2 km/h (1 Bft) O-SO 0,00 h 0,000 mm 0,0 UV-I 0 W/m 13,0 C 22,0 C 3,3 km/h (1 Bft) 0,00 %
27.08.2015 22:00 21,1 C 62 % 1013,3 hPa 0,0 l/m 0,5 km/h (0 Bft) N 0,00 h 0,000 mm 0,0 UV-I 0 W/m 13,4 C 21,1 C 0,7 km/h (0 Bft) 0,00 %
27.08.2015 23:00 17,7 C 76 % 1013,6 hPa 0,0 l/m 0,0 km/h (0 Bft) N 0,00 h 0,000 mm 0,0 UV-I 0 W/m 13,3 C 17,7 C 0,0 km/h (0 Bft) 0,00 %
28.08.2015 00:00 16,2 C 81 % 1013,7 hPa 0,0 l/m 0,0 km/h (0 Bft) N 0,00 h 0,000 mm 0,0 UV-I 0 W/m 12,9 C 16,2 C 0,0 km/h (0 Bft) 0,00 %
28.08.2015 01:00 15,0 C 87 % 1013,7 hPa 0,0 l/m 0,0 km/h (0 Bft) N 0,00 h 0,000 mm 0,0 UV-I 0 W/m 12,8 C 15,0 C 0,0 km/h (0 Bft) 0,00 %
28.08.2015 02:00 14,6 C 89 % 1013,8 hPa 0,0 l/m 0,0 km/h (0 Bft) N 0,00 h 0,000 mm 0,0 UV-I 0 W/m 12,8 C 14,6 C 0,0 km/h (0 Bft) 0,00 %
28.08.2015 03:00 13,9 C 92 % 1014,1 hPa 0,0 l/m 0,0 km/h (0 Bft) N 0,00 h 0,000 mm 0,0 UV-I 0 W/m 12,6 C 13,9 C 0,0 km/h (0 Bft) 0,00 %
28.08.2015 04:00 13,1 C 94 % 1014,7 hPa 0,0 l/m 0,0 km/h (0 Bft) N 0,00 h 0,000 mm 0,0 UV-I 0 W/m 12,1 C 13,1 C 0,0 km/h (0 Bft) 0,00 %
28.08.2015 05:00 12,6 C 95 % 1015,3 hPa 0,0 l/m 0,0 km/h (0 Bft) N 0,00 h 0,000 mm 0,0 UV-I 0 W/m 11,8 C 12,6 C 0,0 km/h (0 Bft) 0,00 %
28.08.2015 06:00 12,5 C 96 % 1016,0 hPa 0,0 l/m 0,0 km/h (0 Bft) N 0,58 h 0,000 mm 0,0 UV-I 47 W/m 11,8 C 12,5 C 0,0 km/h (0 Bft) 0,00 %
28.08.2015 07:00 16,0 C 80 % 1017,1 hPa 0,0 l/m 0,0 km/h (0 Bft) N 0,42 h 0,000 mm 1,0 UV-I 111 W/m 12,4 C 16,0 C 0,0 km/h (0 Bft) 0,00 %
28.08.2015 08:00 19,6 C 67 % 1018,2 hPa 0,0 l/m 0,2 km/h (0 Bft) N 0,00 h 0,000 mm 1,0 UV-I 179 W/m 13,2 C 19,6 C 1,0 km/h (0 Bft) 0,00 %
28.08.2015 09:00 24,0 C 51 % 1018,8 hPa 0,0 l/m 1,8 km/h (1 Bft) W-SW 0,75 h 0,000 mm 1,4 UV-I 286 W/m 13,0 C 23,9 C 3,6 km/h (1 Bft) 0,00 %
28.08.2015 10:00 27,4 C 39 % 1019,2 hPa 0,0 l/m 2,1 km/h (1 Bft) NW 1,00 h 0,000 mm 2,0 UV-I 483 W/m 12,3 C 27,4 C 4,0 km/h (1 Bft) 0,00 %
28.08.2015 11:00 30,3 C 33 % 1019,4 hPa 0,0 l/m 1,4 km/h (1 Bft) W 1,00 h 0,000 mm 3,0 UV-I 661 W/m 12,2 C 30,3 C 3,0 km/h (1 Bft) 0,00 %
28.08.2015 12:00 30,9 C 32 % 1019,3 hPa 0,0 l/m 0,9 km/h (0 Bft) NW 1,00 h 0,000 mm 3,1 UV-I 771 W/m 12,3 C 30,9 C 2,3 km/h (1 Bft) 0,00 %
28.08.2015 13:00 31,4 C 30 % 1019,1 hPa 0,0 l/m 1,8 km/h (1 Bft) W-NW 1,00 h 0,000 mm 3,3 UV-I 843 W/m 11,9 C 31,4 C 3,3 km/h (1 Bft) 0,00 %
28.08.2015 14:00 32,5 C 30 % 1019,0 hPa 0,0 l/m 0,4 km/h (0 Bft) W-NW 1,00 h 0,000 mm 3,0 UV-I 886 W/m 12,8 C 32,5 C 1,0 km/h (0 Bft) 0,00 %
28.08.2015 15:00 33,1 C 28 % 1018,7 hPa 0,0 l/m 0,2 km/h (0 Bft) NO 1,00 h 0,000 mm 2,0 UV-I 621 W/m 12,4 C 33,1 C 1,0 km/h (0 Bft) 0,00 %
28.08.2015 16:00 31,6 C 31 % 1018,5 hPa 0,0 l/m 1,0 km/h (0 Bft) NO 1,00 h 0,000 mm 1,0 UV-I 344 W/m 12,4 C 31,6 C 2,0 km/h (1 Bft) 0,00 %
28.08.2015 17:00 31,7 C 30 % 1018,4 hPa 0,0 l/m 0,4 km/h (0 Bft) N-NO 1,00 h 0,000 mm 1,0 UV-I 647 W/m 12,0 C 31,7 C 1,0 km/h (0 Bft) 0,00 %
28.08.2015 18:00 31,6 C 29 % 1018,6 hPa 0,0 l/m 0,0 km/h (0 Bft) N 1,02 h 0,000 mm 1,0 UV-I 284 W/m 11,5 C 31,6 C 0,0 km/h (0 Bft) 0,00 %
28.08.2015 19:00 29,6 C 36 % 1018,8 hPa 0,0 l/m 0,0 km/h (0 Bft) N 0,75 h 0,000 mm 0,0 UV-I 73 W/m 12,5 C 29,6 C 0,3 km/h (0 Bft) 0,00 %
28.08.2015 20:00 24,9 C 48 % 1019,2 hPa 0,0 l/m 0,0 km/h (0 Bft) N 0,00 h 0,000 mm 0,0 UV-I 0 W/m 13,1 C 24,9 C 0,0 km/h (0 Bft) 0,00 %
28.08.2015 21:00 22,1 C 58 % 1019,9 hPa 0,0 l/m 0,0 km/h (0 Bft) N 0,00 h 0,000 mm 0,0 UV-I 0 W/m 13,4 C 22,1 C 0,0 km/h (0 Bft) 0,00 %
28.08.2015 22:00 20,5 C 64 % 1020,2 hPa 0,0 l/m 0,0 km/h (0 Bft) N 0,00 h 0,000 mm 0,0 UV-I 0 W/m 13,4 C 20,5 C 0,0 km/h (0 Bft) 0,00 %
28.08.2015 23:00 19,9 C 67 % 1020,5 hPa 0,0 l/m 0,0 km/h (0 Bft) N 0,00 h 0,000 mm 0,0 UV-I 0 W/m 13,5 C 19,9 C 0,0 km/h (0 Bft) 0,00 %
29.08.2015 00:00 19,1 C 71 % 1020,9 hPa 0,0 l/m 0,0 km/h (0 Bft) N 0,00 h 0,000 mm 0,0 UV-I 0 W/m 13,7 C 19,1 C 0,0 km/h (0 Bft) 0,00 %
29.08.2015 01:00 18,0 C 76 % 1021,1 hPa 0,0 l/m 0,0 km/h (0 Bft) N 0,00 h 0,000 mm 0,0 UV-I 0 W/m 13,7 C 18,0 C 0,0 km/h (0 Bft) 0,00 %
29.08.2015 02:00 16,9 C 80 % 1021,4 hPa 0,0 l/m 0,0 km/h (0 Bft) N 0,00 h 0,000 mm 0,0 UV-I 0 W/m 13,4 C 16,9 C 0,0 km/h (0 Bft) 0,00 %
29.08.2015 03:00 16,2 C 82 % 1021,7 hPa 0,0 l/m 0,0 km/h (0 Bft) N 0,00 h 0,000 mm 0,0 UV-I 0 W/m 13,2 C 16,2 C 0,0 km/h (0 Bft) 0,00 %
29.08.2015 04:00 16,0 C 83 % 1022,0 hPa 0,0 l/m 0,0 km/h (0 Bft) N 0,00 h 0,000 mm 0,0 UV-I 0 W/m 13,1 C 16,0 C 0,0 km/h (0 Bft) 0,00 %
29.08.2015 05:00 15,3 C 87 % 1022,4 hPa 0,0 l/m 0,0 km/h (0 Bft) N 0,00 h 0,000 mm 0,0 UV-I 0 W/m 13,1 C 15,3 C 0,0 km/h (0 Bft) 0,00 %
29.08.2015 06:00 15,2 C 88 % 1022,9 hPa 0,0 l/m 0,0 km/h (0 Bft) N 0,58 h 0,000 mm 0,0 UV-I 38 W/m 13,2 C 15,2 C 0,0 km/h (0 Bft) 0,00 %
29.08.2015 07:00 19,0 C 71 % 1023,5 hPa 0,0 l/m 0,0 km/h (0 Bft) N 0,58 h 0,000 mm 1,0 UV-I 113 W/m 13,5 C 19,0 C 0,0 km/h (0 Bft) 0,00 %
29.08.2015 08:00 23,7 C 56 % 1024,0 hPa 0,0 l/m 0,0 km/h (0 Bft) N 0,00 h 0,000 mm 1,0 UV-I 173 W/m 14,3 C 23,7 C 0,0 km/h (0 Bft) 0,00 %
29.08.2015 09:00 26,3 C 48 % 1024,3 hPa 0,0 l/m 1,2 km/h (1 Bft) O-NO 0,25 h 0,000 mm 1,1 UV-I 245 W/m 14,2 C 26,3 C 2,6 km/h (1 Bft) 0,00 %
29.08.2015 10:00 27,5 C 44 % 1024,0 hPa 0,0 l/m 1,7 km/h (1 Bft) O 1,00 h 0,000 mm 2,0 UV-I 445 W/m 14,0 C 27,5 C 3,3 km/h (1 Bft) 0,00 %
29.08.2015 11:00 29,4 C 41 % 1023,9 hPa 0,0 l/m 1,7 km/h (1 Bft) O 1,02 h 0,000 mm 2,6 UV-I 628 W/m 14,7 C 29,4 C 4,0 km/h (1 Bft) 0,00 %
29.08.2015 12:00 29,8 C 41 % 1023,4 hPa 0,0 l/m 2,3 km/h (1 Bft) O-SO 1,00 h 0,000 mm 3,0 UV-I 768 W/m 15,0 C 29,8 C 4,6 km/h (1 Bft) 0,00 %
29.08.2015 13:00 30,3 C 39 % 1023,0 hPa 0,0 l/m 2,5 km/h (1 Bft) O-SO 1,00 h 0,000 mm 3,0 UV-I 828 W/m 14,8 C 30,3 C 5,0 km/h (1 Bft) 0,00 %
29.08.2015 14:00 31,4 C 36 % 1022,2 hPa 0,0 l/m 2,3 km/h (1 Bft) O 1,00 h 0,000 mm 3,0 UV-I 872 W/m 14,4 C 31,4 C 4,6 km/h (1 Bft) 0,00 %
29.08.2015 15:00 31,9 C 35 % 1021,5 hPa 0,0 l/m 2,9 km/h (1 Bft) SO 1,00 h 0,000 mm 1,1 UV-I 857 W/m 14,3 C 31,9 C 5,6 km/h (1 Bft) 0,00 %
29.08.2015 16:00 31,5 C 35 % 1020,8 hPa 0,0 l/m 3,8 km/h (1 Bft) O-SO 0,33 h 0,000 mm 1,0 UV-I 287 W/m 13,9 C 31,5 C 5,6 km/h (1 Bft) 0,00 %
29.08.2015 17:00 31,9 C 34 % 1020,4 hPa 0,0 l/m 4,1 km/h (1 Bft) SO 0,92 h 0,000 mm 1,0 UV-I 660 W/m 14,2 C 31,9 C 7,3 km/h (2 Bft) 0,00 %
29.08.2015 18:00 30,9 C 38 % 1019,9 hPa 0,0 l/m 4,6 km/h (1 Bft) O 1,00 h 0,000 mm 1,0 UV-I 455 W/m 15,0 C 30,9 C 7,6 km/h (2 Bft) 0,00 %
29.08.2015 19:00 29,1 C 47 % 1019,8 hPa 0,0 l/m 4,0 km/h (1 Bft) O-NO 0,67 h 0,000 mm 0,0 UV-I 78 W/m 16,7 C 29,0 C 7,0 km/h (2 Bft) 0,00 %
29.08.2015 20:00 26,7 C 55 % 1019,8 hPa 0,0 l/m 0,9 km/h (0 Bft) O 0,00 h 0,000 mm 0,0 UV-I 0 W/m 16,8 C 26,7 C 1,7 km/h (1 Bft) 0,00 %
29.08.2015 21:00 25,7 C 57 % 1019,9 hPa 0,0 l/m 3,8 km/h (1 Bft) O 0,00 h 0,000 mm 0,0 UV-I 0 W/m 16,4 C 25,6 C 6,6 km/h (2 Bft) 0,00 %
29.08.2015 22:00 24,9 C 59 % 1019,7 hPa 0,0 l/m 1,4 km/h (1 Bft) O 0,00 h 0,000 mm 0,0 UV-I 0 W/m 16,4 C 24,9 C 3,3 km/h (1 Bft) 0,00 %
29.08.2015 23:00 22,7 C 67 % 1019,6 hPa 0,0 l/m 0,0 km/h (0 Bft) N 0,00 h 0,000 mm 0,0 UV-I 0 W/m 16,3 C 22,7 C 0,0 km/h (0 Bft) 0,00 %
30.08.2015 00:00 21,4 C 71 % 1019,4 hPa 0,0 l/m 0,6 km/h (0 Bft) O-SO 0,00 h 0,000 mm 0,0 UV-I 0 W/m 16,0 C 21,4 C 1,3 km/h (1 Bft) 0,00 %
30.08.2015 01:00 20,1 C 77 % 1019,2 hPa 0,0 l/m 0,0 km/h (0 Bft) N 0,00 h 0,000 mm 0,0 UV-I 0 W/m 15,9 C 20,1 C 0,0 km/h (0 Bft) 0,00 %
30.08.2015 02:00 18,1 C 86 % 1019,1 hPa 0,0 l/m 0,0 km/h (0 Bft) N 0,00 h 0,000 mm 0,0 UV-I 0 W/m 15,6 C 18,1 C 0,0 km/h (0 Bft) 0,00 %
30.08.2015 03:00 16,7 C 90 % 1019,0 hPa 0,0 l/m 0,0 km/h (0 Bft) N 0,00 h 0,000 mm 0,0 UV-I 0 W/m 15,0 C 16,7 C 0,0 km/h (0 Bft) 0,00 %
30.08.2015 04:00 15,8 C 94 % 1018,9 hPa 0,0 l/m 0,0 km/h (0 Bft) N 0,00 h 0,000 mm 0,0 UV-I 0 W/m 14,9 C 15,8 C 0,0 km/h (0 Bft) 0,00 %
30.08.2015 05:00 15,4 C 96 % 1019,0 hPa 0,0 l/m 0,0 km/h (0 Bft) N 0,00 h 0,000 mm 0,0 UV-I 0 W/m 14,8 C 15,4 C 0,0 km/h (0 Bft) 0,00 %
30.08.2015 06:00 15,0 C 97 % 1019,4 hPa 0,0 l/m 0,0 km/h (0 Bft) N 0,58 h 0,000 mm 0,0 UV-I 47 W/m 14,6 C 15,0 C 0,0 km/h (0 Bft) 0,00 %
30.08.2015 07:00 19,1 C 80 % 1019,7 hPa 0,0 l/m 0,0 km/h (0 Bft) N 0,50 h 0,000 mm 1,0 UV-I 110 W/m 15,4 C 19,1 C 0,0 km/h (0 Bft) 0,00 %
30.08.2015 08:00 23,2 C 62 % 1020,0 hPa 0,0 l/m 0,1 km/h (0 Bft) N 0,00 h 0,000 mm 1,0 UV-I 171 W/m 15,5 C 23,2 C 1,0 km/h (0 Bft) 0,00 %
30.08.2015 09:00 25,6 C 55 % 1020,1 hPa 0,0 l/m 0,2 km/h (0 Bft) W-SW 0,42 h 0,000 mm 1,1 UV-I 263 W/m 16,0 C 25,6 C 1,3 km/h (1 Bft) 0,00 %
30.08.2015 10:00 27,6 C 47 % 1020,2 hPa 0,0 l/m 0,6 km/h (0 Bft) N-NO 1,00 h 0,000 mm 2,0 UV-I 423 W/m 15,3 C 27,6 C 1,7 km/h (1 Bft) 0,00 %
30.08.2015 11:00 30,4 C 40 % 1020,1 hPa 0,0 l/m 0,8 km/h (0 Bft) N-NO 1,00 h 0,000 mm 2,6 UV-I 637 W/m 15,2 C 30,4 C 1,7 km/h (1 Bft) 0,00 %
30.08.2015 12:00 31,7 C 38 % 1019,3 hPa 0,0 l/m 1,4 km/h (1 Bft) N-NW 1,00 h 0,000 mm 3,0 UV-I 773 W/m 15,6 C 31,7 C 2,6 km/h (1 Bft) 0,00 %
30.08.2015 13:00 33,0 C 36 % 1018,6 hPa 0,0 l/m 0,2 km/h (0 Bft) W-SW 1,00 h 0,000 mm 3,0 UV-I 842 W/m 15,7 C 33,0 C 1,0 km/h (0 Bft) 0,00 %
30.08.2015 14:00 34,9 C 31 % 1017,8 hPa 0,0 l/m 1,9 km/h (1 Bft) W-SW 1,00 h 0,000 mm 2,9 UV-I 890 W/m 15,1 C 34,9 C 3,6 km/h (1 Bft) 0,00 %
30.08.2015 15:00 35,2 C 30 % 1016,8 hPa 0,0 l/m 0,8 km/h (0 Bft) O 1,00 h 0,000 mm 1,0 UV-I 880 W/m 15,0 C 35,2 C 2,3 km/h (1 Bft) 0,00 %
30.08.2015 16:00 34,0 C 32 % 1016,1 hPa 0,0 l/m 0,2 km/h (0 Bft) N-NW 0,17 h 0,000 mm 1,0 UV-I 194 W/m 15,0 C 34,0 C 1,0 km/h (0 Bft) 0,00 %
30.08.2015 17:00 34,5 C 30 % 1015,5 hPa 0,0 l/m 0,1 km/h (0 Bft) N-NW 0,92 h 0,000 mm 1,0 UV-I 697 W/m 14,4 C 34,5 C 0,3 km/h (0 Bft) 0,00 %
30.08.2015 18:00 34,5 C 32 % 1015,2 hPa 0,0 l/m 0,1 km/h (0 Bft) N 1,00 h 0,000 mm 1,0 UV-I 438 W/m 15,1 C 34,5 C 0,3 km/h (0 Bft) 0,00 %
30.08.2015 19:00 31,1 C 40 % 1015,4 hPa 0,0 l/m 0,0 km/h (0 Bft) N 0,67 h 0,000 mm 0,0 UV-I 60 W/m 16,0 C 31,1 C 0,0 km/h (0 Bft) 0,00 %
30.08.2015 20:00 27,1 C 50 % 1015,8 hPa 0,0 l/m 0,0 km/h (0 Bft) N 0,00 h 0,000 mm 0,0 UV-I 0 W/m 15,8 C 27,1 C 0,0 km/h (0 Bft) 0,00 %
30.08.2015 21:00 25,0 C 58 % 1015,9 hPa 0,0 l/m 0,0 km/h (0 Bft) N 0,00 h 0,000 mm 0,0 UV-I 0 W/m 16,1 C 25,0 C 0,0 km/h (0 Bft) 0,00 %
30.08.2015 22:00 22,9 C 66 % 1016,0 hPa 0,0 l/m 0,0 km/h (0 Bft) N 0,00 h 0,000 mm 0,0 UV-I 0 W/m 16,1 C 22,9 C 0,0 km/h (0 Bft) 0,00 %
30.08.2015 23:00 21,7 C 71 % 1016,0 hPa 0,0 l/m 0,0 km/h (0 Bft) N 0,00 h 0,000 mm 0,0 UV-I 0 W/m 16,2 C 21,7 C 0,0 km/h (0 Bft) 0,00 %
Min-Datum _ 26.08.15 26.08.15 24.08.15 - 24.08.15 - - - - - 26.08.15 26.08.15 24.08.15 24.08.15
_ Min-Zeit 06:20 14:50 18:46 - 00:00 - - - - - 14:50 06:20 00:00 00:00
Minimum _ 5,4 C 18 % 1005,9 hPa - 0,0 km/h (0 Bft) - - - - - -0,2 C 5,4 C 0,0 km/h (0 Bft) 0,00 %
Max-Datum _ 30.08.15 26.08.15 29.08.15 25.08.15 24.08.15 - 26.08.15 24.08.15 24.08.15 25.08.15 29.08.15 30.08.15 24.08.15 24.08.15
_ Max-Zeit 15:29 06:50 09:12 07:43 23:28 - 18:56 00:00 11:51 12:04 19:53 15:29 23:28 00:00
Maximum _ 35,7 C 99 % 1024,4 hPa 0,3 l/m 16,9 km/h
S (3 Bft)
- 0,10 h 0,000 mm 4,0 UV-I 1064 W/m 17,2 C 35,7 C 28,1 km/h
S (4 Bft)
0,00 %
Durchschnitt _ 21,2 C 59 % 1017,0 hPa #0,3 l/m 1,3 km/h (1 Bft) O-SO #64:44 h #0,000 mm 1,8 UV-I 423 W/m 11,4 C 21,2 C 2,4 km/h (1 Bft) 0,00 %